createdAt,value
2019-05-16T00:00:20.562Z,704.77
2019-05-16T00:02:50.145Z,721.30
2019-05-16T00:05:19.956Z,752.47
2019-05-16T00:07:49.519Z,754.67
2019-05-16T00:10:18.811Z,735.43
2019-05-16T00:12:50.357Z,739.13
2019-05-16T00:15:19.386Z,740.07
2019-05-16T00:17:48.994Z,726.77
2019-05-16T00:20:19.095Z,749.63
2019-05-16T00:22:48.700Z,754.90
2019-05-16T00:25:18.107Z,720.57
2019-05-16T00:27:47.962Z,767.83
2019-05-16T00:30:18.210Z,747.97
2019-05-16T00:32:48.247Z,744.60
2019-05-16T00:35:18.223Z,759.60
2019-05-16T00:37:48.321Z,730.33
2019-05-16T00:40:18.759Z,721.50
2019-05-16T00:42:49.252Z,741.07
2019-05-16T00:45:18.757Z,695.23
2019-05-16T00:47:48.271Z,753.77
2019-05-16T00:50:19.201Z,755.43
2019-05-16T00:52:48.705Z,716.03
2019-05-16T00:55:18.174Z,734.17
2019-05-16T00:57:48.872Z,765.77
2019-05-16T01:00:19.520Z,764.10
2019-05-16T01:02:49.574Z,733.43
2019-05-16T01:05:19.329Z,829.67
2019-05-16T01:07:48.380Z,705.90
2019-05-16T01:10:18.451Z,784.73
2019-05-16T01:12:48.178Z,765.80
2019-05-16T01:15:18.517Z,841.13
2019-05-16T01:17:48.371Z,753.27
2019-05-16T01:20:19.284Z,705.87
2019-05-16T01:22:49.097Z,720.27
2019-05-16T01:25:19.567Z,766.10
2019-05-16T01:27:49.147Z,755.60
2019-05-16T01:30:19.055Z,702.57
2019-05-16T01:32:49.134Z,756.30
2019-05-16T01:35:18.958Z,754.17
2019-05-16T01:37:48.802Z,730.87
2019-05-16T01:40:19.074Z,766.67
2019-05-16T01:42:48.966Z,719.63
2019-05-16T01:45:18.931Z,872.93
2019-05-16T01:47:48.370Z,826.63
2019-05-16T01:50:18.202Z,796.57
2019-05-16T01:52:48.677Z,823.20
2019-05-16T01:55:18.690Z,812.53
2019-05-16T01:57:48.795Z,811.03
2019-05-16T02:00:24.672Z,857.50
2019-05-16T02:02:48.858Z,880.73
2019-05-16T02:05:18.985Z,852.80
2019-05-16T02:07:48.205Z,751.07
2019-05-16T02:10:18.043Z,726.37
2019-05-16T02:12:48.994Z,807.57
2019-05-16T02:15:18.399Z,828.83
2019-05-16T02:17:48.641Z,805.37
2019-05-16T02:20:19.168Z,781.20
2019-05-16T02:22:48.380Z,742.63
2019-05-16T02:25:18.631Z,795.57
2019-05-16T02:27:48.819Z,762.33
2019-05-16T02:30:21.628Z,779.23
2019-05-16T02:32:52.212Z,771.00
2019-05-16T02:35:21.060Z,735.97
2019-05-16T02:37:51.743Z,777.73
2019-05-16T02:40:22.756Z,844.83
2019-05-16T02:42:52.026Z,756.63
2019-05-16T02:45:24.612Z,814.43
2019-05-16T02:47:52.047Z,825.83
2019-05-16T02:50:22.474Z,886.40
2019-05-16T02:52:52.384Z,867.20
2019-05-16T02:55:21.897Z,849.30
2019-05-16T02:57:51.316Z,861.23
2019-05-16T03:00:21.923Z,845.50
2019-05-16T03:02:51.061Z,794.90
2019-05-16T03:05:20.867Z,761.50
2019-05-16T03:07:52.160Z,706.07
2019-05-16T03:10:21.875Z,882.87
2019-05-16T03:12:52.345Z,830.33
2019-05-16T03:15:21.942Z,805.10
2019-05-16T03:17:52.638Z,781.47
2019-05-16T03:20:22.317Z,801.17
2019-05-16T03:22:52.754Z,739.47
2019-05-16T03:25:22.341Z,724.77
2019-05-16T03:27:51.547Z,769.13
2019-05-16T03:30:23.537Z,749.23
2019-05-16T03:32:54.784Z,736.77
2019-05-16T03:35:24.429Z,708.53
2019-05-16T03:37:59.660Z,688.17
2019-05-16T03:40:24.397Z,712.50
2019-05-16T03:42:54.202Z,806.90
2019-05-16T03:45:23.244Z,757.23
2019-05-16T03:47:52.823Z,762.23
2019-05-16T03:50:22.037Z,740.50
2019-05-16T03:52:51.216Z,755.93
2019-05-16T03:55:21.389Z,757.73
2019-05-16T03:57:51.618Z,708.30
2019-05-16T04:00:23.210Z,744.83
2019-05-16T04:02:52.431Z,749.47
2019-05-16T04:05:21.486Z,737.17
2019-05-16T04:07:53.117Z,786.73
2019-05-16T04:10:21.731Z,753.67
2019-05-16T04:12:51.424Z,752.57
2019-05-16T04:15:21.493Z,758.27
2019-05-16T04:17:51.482Z,726.33
2019-05-16T04:20:21.447Z,726.93
2019-05-16T04:22:51.430Z,768.40
2019-05-16T04:25:21.685Z,763.73
2019-05-16T04:27:50.937Z,779.43
2019-05-16T04:30:21.987Z,728.77
2019-05-16T04:32:51.816Z,776.83
2019-05-16T04:35:21.706Z,819.23
2019-05-16T04:37:51.445Z,768.53
2019-05-16T04:40:21.873Z,817.23
2019-05-16T04:42:51.496Z,727.63
2019-05-16T04:45:21.292Z,763.70
2019-05-16T04:47:51.420Z,787.97
2019-05-16T04:50:21.224Z,801.27
2019-05-16T04:52:51.925Z,770.87
2019-05-16T04:55:21.698Z,840.17
2019-05-16T04:57:51.295Z,875.40
2019-05-16T05:00:22.629Z,746.53
2019-05-16T05:02:52.115Z,806.10
2019-05-16T05:05:21.719Z,841.20
2019-05-16T05:07:51.227Z,822.67
2019-05-16T05:10:20.833Z,767.50
2019-05-16T05:12:51.613Z,782.83
2019-05-16T05:15:21.686Z,807.20
2019-05-16T05:17:50.731Z,794.10
2019-05-16T05:20:21.071Z,894.97
2019-05-16T05:22:50.495Z,803.50
2019-05-16T05:25:20.575Z,721.70
2019-05-16T05:27:50.101Z,804.57
2019-05-16T05:30:20.062Z,780.10
2019-05-16T05:32:50.208Z,788.23
2019-05-16T05:35:20.529Z,812.60
2019-05-16T05:37:50.742Z,784.83
2019-05-16T05:40:20.240Z,832.60
2019-05-16T05:42:50.502Z,769.17
2019-05-16T05:45:20.313Z,782.50
2019-05-16T05:47:50.525Z,709.03
2019-05-16T05:50:20.410Z,755.50
2019-05-16T05:52:51.053Z,709.53
2019-05-16T05:55:20.520Z,808.43
2019-05-16T05:57:50.715Z,761.03
2019-05-16T06:03:56.549Z,707.47
2019-05-16T06:06:25.723Z,724.67
2019-05-16T06:08:54.788Z,762.00
2019-05-16T06:11:24.182Z,783.17
2019-05-16T06:13:53.199Z,777.80
2019-05-16T06:16:22.388Z,783.87
2019-05-16T06:18:51.402Z,761.83
2019-05-16T06:21:20.649Z,763.77
2019-05-16T06:23:51.046Z,737.87
2019-05-16T06:26:20.624Z,724.80
2019-05-16T06:28:50.776Z,793.00
2019-05-16T06:31:22.253Z,790.30
2019-05-16T06:33:50.604Z,767.63
2019-05-16T06:36:20.539Z,732.53
2019-05-16T06:38:49.909Z,725.00
2019-05-16T06:41:19.974Z,765.73
2019-05-16T06:43:50.746Z,756.43
2019-05-16T06:46:20.229Z,758.83
2019-05-16T06:48:50.673Z,775.93
2019-05-16T06:51:20.164Z,791.87
2019-05-16T06:53:50.096Z,783.90
2019-05-16T06:56:20.210Z,866.10
2019-05-16T06:58:52.058Z,801.83
2019-05-16T07:01:21.051Z,794.83
2019-05-16T07:03:50.769Z,734.40
2019-05-16T07:06:45.997Z,761.13
2019-05-16T07:08:51.510Z,796.07
2019-05-16T07:11:21.080Z,753.53
2019-05-16T07:13:51.991Z,793.17
2019-05-16T07:16:20.799Z,746.93
2019-05-16T07:18:50.647Z,826.17
2019-05-16T07:21:20.661Z,770.30
2019-05-16T07:23:51.079Z,858.20
2019-05-16T07:26:20.653Z,968.67
2019-05-16T07:28:51.636Z,769.60
2019-05-16T07:31:22.621Z,793.50
2019-05-16T07:33:51.525Z,805.60
2019-05-16T07:36:21.028Z,758.93
2019-05-16T07:38:50.709Z,743.50
2019-05-16T07:41:20.587Z,809.67
2019-05-16T07:43:50.627Z,798.40
2019-05-16T07:46:20.749Z,781.80
2019-05-16T07:48:52.008Z,822.87
2019-05-16T07:51:22.056Z,791.97
2019-05-16T07:53:51.130Z,759.77
2019-05-16T07:56:20.550Z,868.93
2019-05-16T07:58:50.829Z,751.00
2019-05-16T08:01:21.034Z,786.37
2019-05-16T08:03:51.833Z,791.43
2019-05-16T08:06:20.867Z,839.00
2019-05-16T08:08:51.106Z,841.37
2019-05-16T08:11:23.526Z,791.67
2019-05-16T08:13:51.038Z,986.43
2019-05-16T08:16:21.045Z,733.90
2019-05-16T08:18:51.071Z,815.87
2019-05-16T08:21:20.535Z,825.67
2019-05-16T08:23:50.560Z,758.27
2019-05-16T08:28:50.758Z,736.50
2019-05-16T08:36:22.133Z,887.13
2019-05-16T08:38:52.157Z,860.20
2019-05-16T08:41:23.184Z,751.30
2019-05-16T08:43:53.403Z,737.17
2019-05-16T08:46:22.870Z,738.00
2019-05-16T08:48:54.063Z,796.90
2019-05-16T08:51:22.678Z,767.43
2019-05-16T08:53:52.048Z,953.50
2019-05-16T08:56:22.496Z,787.77
2019-05-16T08:58:54.108Z,828.43
2019-05-16T09:01:23.308Z,847.77
2019-05-16T09:03:53.400Z,804.30
2019-05-16T09:06:23.653Z,742.47
2019-05-16T09:08:52.791Z,843.17
2019-05-16T09:10:10.999Z,734.63
2019-05-16T09:10:39.040Z,888.20
2019-05-16T09:10:41.347Z,755.07
2019-05-16T09:11:35.660Z,781.80
2019-05-16T09:13:52.712Z,712.97
2019-05-16T09:16:21.878Z,996.70
2019-05-16T09:18:51.384Z,748.53
2019-05-16T09:21:20.524Z,812.77
2019-05-16T09:23:49.544Z,782.47
2019-05-16T09:26:19.762Z,760.33
2019-05-16T09:28:50.206Z,718.40
2019-05-16T09:31:19.428Z,747.03
2019-05-16T09:33:49.536Z,850.20
2019-05-16T09:36:18.568Z,842.60
2019-05-16T09:38:48.644Z,811.17
2019-05-16T09:41:18.028Z,874.47
2019-05-16T09:43:48.894Z,794.50
2019-05-16T09:46:18.661Z,977.33
2019-05-16T09:48:48.216Z,859.87
2019-05-16T09:51:19.332Z,781.23
2019-05-16T09:53:48.639Z,840.87
2019-05-16T09:56:18.500Z,820.50
2019-05-16T09:58:47.697Z,892.47
2019-05-16T10:01:17.544Z,1017.50
2019-05-16T10:03:48.081Z,890.83
2019-05-16T10:06:19.107Z,832.97
2019-05-16T10:08:48.056Z,815.50
2019-05-16T10:11:18.139Z,794.23
2019-05-16T10:13:48.447Z,732.17
2019-05-16T10:16:17.580Z,793.73
2019-05-16T10:18:47.779Z,834.43
2019-05-16T10:21:20.379Z,828.43
2019-05-16T10:23:47.902Z,849.10
2019-05-16T10:26:19.249Z,738.67
2019-05-16T10:28:48.295Z,747.10
2019-05-16T10:31:17.945Z,861.10
2019-05-16T10:33:47.802Z,829.40
2019-05-16T10:36:21.127Z,993.70
2019-05-16T10:38:48.656Z,834.77
2019-05-16T10:41:17.823Z,835.50
2019-05-16T10:43:48.443Z,850.00
2019-05-16T10:46:17.945Z,878.53
2019-05-16T10:48:47.109Z,991.60
2019-05-16T10:51:16.952Z,902.40
2019-05-16T10:54:08.287Z,958.47
2019-05-16T10:56:17.507Z,861.20
2019-05-16T10:59:10.560Z,937.93
2019-05-16T11:01:26.656Z,901.67
2019-05-16T11:03:49.576Z,931.07
2019-05-16T11:06:25.637Z,905.60
2019-05-16T11:08:49.696Z,942.37
2019-05-16T11:11:19.942Z,870.93
2019-05-16T11:13:51.235Z,918.33
2019-05-16T11:16:20.417Z,851.03
2019-05-16T11:18:49.497Z,860.73
2019-05-16T11:21:19.382Z,798.27
2019-05-16T11:23:48.847Z,921.90
2019-05-16T11:26:17.931Z,867.23
2019-05-16T11:28:48.474Z,887.70
2019-05-16T11:31:17.763Z,861.73
2019-05-16T11:33:47.761Z,764.90
2019-05-16T11:36:17.286Z,927.83
2019-05-16T11:38:47.480Z,843.80
2019-05-16T11:41:17.101Z,869.00
2019-05-16T11:43:47.483Z,864.40
2019-05-16T11:46:18.178Z,883.20
2019-05-16T11:48:48.961Z,964.53
2019-05-16T11:51:18.038Z,856.07
2019-05-16T11:53:47.739Z,864.07
2019-05-16T11:56:16.984Z,854.43
2019-05-16T11:58:47.372Z,837.93
2019-05-16T12:01:16.556Z,1034.53
2019-05-16T12:03:46.771Z,851.50
2019-05-16T12:06:17.080Z,936.60
2019-05-16T12:08:46.758Z,886.80
2019-05-16T12:11:17.888Z,858.20
2019-05-16T12:13:47.559Z,1548.10
2019-05-16T12:16:18.837Z,893.23
2019-05-16T12:18:48.140Z,1432.60
2019-05-16T12:21:17.788Z,822.20
2019-05-16T12:23:47.296Z,1020.73
2019-05-16T12:26:17.515Z,817.17
2019-05-16T12:28:47.289Z,829.43
2019-05-16T12:31:17.442Z,903.17
2019-05-16T12:33:47.821Z,849.03
2019-05-16T12:36:18.353Z,863.17
2019-05-16T12:38:48.111Z,876.13
2019-05-16T12:41:17.255Z,831.43
2019-05-16T12:43:53.075Z,811.83
2019-05-16T12:46:17.101Z,842.83
2019-05-16T12:48:47.382Z,863.00
2019-05-16T12:51:17.246Z,822.83
2019-05-16T12:53:47.764Z,921.53
2019-05-16T12:56:18.326Z,1999.90
2019-05-16T12:58:48.295Z,1110.67
2019-05-16T13:01:20.786Z,810.90
2019-05-16T13:03:48.724Z,819.87
2019-05-16T13:06:18.639Z,841.90
2019-05-16T13:08:47.663Z,872.43
2019-05-16T13:11:17.779Z,774.20
2019-05-16T13:14:02.364Z,776.43
2019-05-16T13:16:18.496Z,826.77
2019-05-16T13:18:47.695Z,865.07
2019-05-16T13:21:18.371Z,915.27
2019-05-16T13:23:48.307Z,880.27
2019-05-16T13:26:17.753Z,843.37
2019-05-16T13:28:47.780Z,1035.93
2019-05-16T13:31:17.199Z,1054.13
2019-05-16T13:33:46.989Z,736.70
2019-05-16T13:36:17.403Z,872.10
2019-05-16T13:38:48.083Z,758.73
2019-05-16T13:41:18.366Z,747.57
2019-05-16T13:43:48.322Z,755.17
2019-05-16T13:46:17.369Z,737.03
2019-05-16T13:48:46.833Z,763.47
2019-05-16T13:51:18.967Z,758.67
2019-05-16T13:53:47.399Z,803.27
2019-05-16T13:56:17.542Z,690.33
2019-05-16T13:58:47.242Z,760.43
2019-05-16T14:01:17.250Z,1107.33
2019-05-16T14:03:48.452Z,1613.87
2019-05-16T14:06:18.415Z,827.53
2019-05-16T14:08:47.794Z,899.50
2019-05-16T14:11:17.246Z,1182.90
2019-05-16T14:13:47.109Z,918.23
2019-05-16T14:16:18.065Z,1088.23
2019-05-16T14:18:47.487Z,739.40
2019-05-16T14:21:18.150Z,788.67
2019-05-16T14:23:53.192Z,875.57
2019-05-16T14:26:17.900Z,735.33
2019-05-16T14:28:48.940Z,900.07
2019-05-16T14:31:17.630Z,811.90
2019-05-16T14:33:47.419Z,678.40
2019-05-16T14:36:16.669Z,699.13
2019-05-16T14:38:46.784Z,785.47
2019-05-16T14:41:17.383Z,755.20
2019-05-16T14:43:46.947Z,710.77
2019-05-16T14:46:18.415Z,748.10
2019-05-16T14:48:47.364Z,788.77
2019-05-16T14:51:18.029Z,779.77
2019-05-16T14:53:47.505Z,813.37
2019-05-16T14:56:16.521Z,709.63
2019-05-16T14:58:48.372Z,780.00
2019-05-16T15:01:17.643Z,705.43
2019-05-16T15:03:47.312Z,784.70
2019-05-16T15:06:18.306Z,686.17
2019-05-16T15:08:47.657Z,768.00
2019-05-16T15:11:18.005Z,896.30
2019-05-16T15:13:47.331Z,770.40
2019-05-16T15:16:17.001Z,866.30
2019-05-16T15:18:47.618Z,748.73
2019-05-16T15:21:17.584Z,869.03
2019-05-16T15:23:47.699Z,1057.87
2019-05-16T15:26:18.061Z,969.03
2019-05-16T15:28:50.973Z,686.10
2019-05-16T15:31:18.138Z,806.80
2019-05-16T15:33:47.683Z,739.10
2019-05-16T15:36:16.953Z,796.17
2019-05-16T15:38:47.202Z,787.40
2019-05-16T15:41:17.215Z,804.70
2019-05-16T15:43:47.015Z,734.70
2019-05-16T15:46:17.408Z,1099.50
2019-05-16T15:48:48.798Z,914.50
2019-05-16T15:51:21.049Z,862.67
2019-05-16T15:53:48.350Z,1015.70
2019-05-16T15:56:17.904Z,1371.47
2019-05-16T15:58:46.932Z,1056.27
2019-05-16T16:01:18.535Z,1068.47
2019-05-16T16:03:47.312Z,1098.40
2019-05-16T16:06:17.780Z,1217.83
2019-05-16T16:08:48.480Z,1159.07
2019-05-16T16:11:19.547Z,1194.17
2019-05-16T16:13:49.601Z,1115.57
2019-05-16T16:16:18.663Z,1152.73
2019-05-16T16:18:47.973Z,1094.50
2019-05-16T16:21:17.223Z,1145.37
2019-05-16T16:23:47.431Z,1187.60
2019-05-16T16:26:17.824Z,1224.50
2019-05-16T16:28:47.532Z,1120.67
2019-05-16T16:31:16.913Z,1245.37
2019-05-16T16:33:46.070Z,1122.67
2019-05-16T16:36:17.120Z,1232.90
2019-05-16T16:38:47.645Z,1430.90
2019-05-16T16:41:17.019Z,1116.90
2019-05-16T16:43:47.707Z,1266.63
2019-05-16T16:46:17.702Z,1164.37
2019-05-16T16:48:46.816Z,1169.93
2019-05-16T16:51:17.718Z,1119.57
2019-05-16T16:53:46.981Z,1158.13
2019-05-16T16:56:16.830Z,1158.93
2019-05-16T16:58:46.948Z,1214.23
2019-05-16T17:01:17.499Z,1173.77
2019-05-16T17:03:47.811Z,1128.90
2019-05-16T17:06:17.754Z,1153.90
2019-05-16T17:08:47.445Z,1133.60
2019-05-16T17:11:16.564Z,1295.47
2019-05-16T17:13:47.234Z,1126.27
2019-05-16T17:16:25.734Z,1140.83
2019-05-16T17:18:49.492Z,1098.43
2019-05-16T17:21:18.508Z,1115.97
2019-05-16T17:27:07.662Z,1321.43
2019-05-16T17:29:36.927Z,1171.47
2019-05-16T17:32:10.101Z,1239.37
2019-05-16T17:34:38.817Z,1123.10
2019-05-16T17:37:09.711Z,1152.33
2019-05-16T17:39:39.501Z,1120.50
2019-05-16T17:42:09.576Z,1243.37
2019-05-16T17:44:39.555Z,1378.40
2019-05-16T17:47:08.620Z,1228.43
2019-05-16T17:49:38.467Z,1208.10
2019-05-16T17:52:07.720Z,1309.97
2019-05-16T17:54:37.298Z,1228.63
2019-05-16T17:57:07.423Z,1297.63
2019-05-16T17:59:37.987Z,1266.50
2019-05-16T18:02:07.294Z,1253.53
2019-05-16T18:04:37.263Z,1257.33
2019-05-16T18:07:07.416Z,1261.47
2019-05-16T18:09:36.946Z,1275.63
2019-05-16T18:12:06.911Z,1230.33
2019-05-16T18:14:37.335Z,1275.73
2019-05-16T18:17:07.628Z,1289.27
2019-05-16T18:19:37.355Z,1345.83
2019-05-16T18:22:06.989Z,1220.30
2019-05-16T18:24:37.157Z,1296.90
2019-05-16T18:27:06.899Z,1234.43
2019-05-16T18:29:36.612Z,1297.17
2019-05-16T18:32:07.014Z,1281.13
2019-05-16T18:34:37.821Z,1478.13
2019-05-16T18:37:07.271Z,1237.73
2019-05-16T18:39:37.194Z,1266.20
2019-05-16T18:42:06.720Z,1246.53
2019-05-16T18:44:36.631Z,1269.93
2019-05-16T18:47:10.470Z,1271.40
2019-05-16T18:49:37.197Z,1282.70
2019-05-16T18:52:06.787Z,1221.93
2019-05-16T18:54:37.641Z,1199.70
2019-05-16T18:57:07.246Z,1240.50
2019-05-16T18:59:37.804Z,1154.87
2019-05-16T19:02:09.766Z,1199.57
2019-05-16T19:04:38.118Z,1181.50
2019-05-16T19:07:08.026Z,1210.20
2019-05-16T19:09:37.627Z,1281.60
2019-05-16T19:12:07.151Z,1233.23
2019-05-16T19:14:36.846Z,1211.70
2019-05-16T19:17:20.302Z,1254.40
2019-05-16T19:19:37.591Z,1328.53
2019-05-16T19:22:07.492Z,1177.00
2019-05-16T19:24:37.476Z,1268.97
2019-05-16T19:27:06.817Z,1347.50
2019-05-16T19:29:36.832Z,1224.50
2019-05-16T19:32:06.689Z,1264.70
2019-05-16T19:34:36.145Z,1258.23
2019-05-16T19:37:06.983Z,1239.77
2019-05-16T19:39:37.244Z,1295.87
2019-05-16T19:42:06.606Z,1253.20
2019-05-16T19:44:37.055Z,1247.13
2019-05-16T19:47:07.057Z,1269.83
2019-05-16T19:49:37.192Z,1238.87
2019-05-16T19:52:07.239Z,1224.67
2019-05-16T19:54:37.107Z,1254.97
2019-05-16T19:57:07.424Z,1274.73
2019-05-16T19:59:36.728Z,1277.80
2019-05-16T20:02:07.744Z,1257.27
2019-05-16T20:04:36.971Z,1221.90
2019-05-16T20:07:07.477Z,1220.00
2019-05-16T20:09:37.511Z,1240.17
2019-05-16T20:12:07.860Z,1212.93
2019-05-16T20:14:36.951Z,1240.83
2019-05-16T20:17:07.381Z,1263.73
2019-05-16T20:19:37.222Z,1269.03
2019-05-16T20:22:07.734Z,1292.33
2019-05-16T20:24:36.961Z,1309.20
2019-05-16T20:27:08.033Z,1140.07
2019-05-16T20:29:36.994Z,1246.43
2019-05-16T20:32:07.777Z,1248.90
2019-05-16T20:34:37.173Z,1342.13
2019-05-16T20:37:09.056Z,1286.43
2019-05-16T20:39:37.179Z,1282.33
2019-05-16T20:42:07.758Z,1285.23
2019-05-16T20:44:37.304Z,1274.40
2019-05-16T20:47:07.224Z,1168.93
2019-05-16T20:49:37.372Z,1313.63
2019-05-16T20:52:07.158Z,1332.27
2019-05-16T20:54:37.778Z,1221.27
2019-05-16T20:57:07.298Z,1330.27
2019-05-16T20:59:36.640Z,1238.20
2019-05-16T21:02:06.844Z,1215.17
2019-05-16T21:04:37.562Z,1255.27
2019-05-16T21:07:10.738Z,1269.27
2019-05-16T21:09:37.492Z,1277.20
2019-05-16T21:12:08.287Z,1328.33
2019-05-16T21:14:37.231Z,1251.53
2019-05-16T21:17:06.639Z,1217.70
2019-05-16T21:19:36.286Z,1231.93
2019-05-16T21:22:07.740Z,1288.13
2019-05-16T21:24:37.307Z,1292.13
2019-05-16T21:27:06.633Z,1277.07
2019-05-16T21:29:36.927Z,1360.43
2019-05-16T21:32:07.529Z,1300.67
2019-05-16T21:34:36.635Z,1220.70
2019-05-16T21:37:16.590Z,1251.57
2019-05-16T21:39:36.982Z,1323.57
2019-05-16T21:42:07.526Z,1316.93
2019-05-16T21:44:37.486Z,1348.17
2019-05-16T21:47:06.951Z,1321.30
2019-05-16T21:49:36.986Z,1236.23
2019-05-16T21:52:06.498Z,1401.67
2019-05-16T21:54:36.679Z,1320.20
2019-05-16T21:57:06.068Z,1371.27
2019-05-16T21:59:37.057Z,1223.70
2019-05-16T22:02:06.076Z,1308.53
2019-05-16T22:04:36.797Z,1159.03
2019-05-16T22:07:08.428Z,1289.00
2019-05-16T22:09:39.062Z,1325.37
2019-05-16T22:12:08.236Z,1286.03
2019-05-16T22:14:39.847Z,1244.20
2019-05-16T22:17:08.956Z,1354.03
2019-05-16T22:19:37.980Z,1195.00
2019-05-16T22:22:07.523Z,1311.10
2019-05-16T22:24:37.158Z,1241.67
2019-05-16T22:27:06.854Z,1283.40
2019-05-16T22:29:37.108Z,1287.67
2019-05-16T22:32:09.281Z,1276.97
2019-05-16T22:34:38.810Z,1311.77
2019-05-16T22:37:08.069Z,1254.40
2019-05-16T22:39:37.193Z,1240.23
2019-05-16T22:42:09.198Z,1312.10
2019-05-16T22:44:38.415Z,1260.80
2019-05-16T22:47:07.435Z,1259.40
2019-05-16T22:49:36.990Z,1208.77
2019-05-16T22:52:06.842Z,1297.40
2019-05-16T22:54:37.017Z,1202.97
2019-05-16T22:57:06.661Z,1324.30
2019-05-16T22:59:36.685Z,1297.97
2019-05-16T23:02:11.543Z,1304.80
2019-05-16T23:04:37.605Z,1291.73
2019-05-16T23:07:07.006Z,1351.97
2019-05-16T23:09:37.034Z,1339.57
2019-05-16T23:12:07.050Z,1293.97
2019-05-16T23:14:36.341Z,1289.47
2019-05-16T23:17:06.786Z,1359.13
2019-05-16T23:19:36.716Z,1317.10
2019-05-16T23:22:07.696Z,1382.13
2019-05-16T23:24:37.086Z,1267.67
2019-05-16T23:27:06.985Z,1287.40
2019-05-16T23:29:36.947Z,1304.03
2019-05-16T23:32:07.399Z,1341.97
2019-05-16T23:34:37.446Z,1308.33
2019-05-16T23:37:07.548Z,1370.97
2019-05-16T23:39:37.952Z,1235.13
2019-05-16T23:42:07.921Z,1318.50
2019-05-16T23:44:37.132Z,1347.50
2019-05-16T23:47:07.096Z,1340.60
2019-05-16T23:49:36.773Z,1394.03
2019-05-16T23:52:07.450Z,1376.43
2019-05-16T23:54:37.494Z,1344.40
2019-05-16T23:57:06.740Z,1232.83
2019-05-16T23:59:36.940Z,1258.57
